createdAt,value
2019-01-20T00:01:58.782Z,-2.40
2019-01-20T00:04:29.362Z,-2.40
2019-01-20T00:06:59.387Z,-2.50
2019-01-20T00:09:29.079Z,-2.50
2019-01-20T00:11:58.783Z,-2.50
2019-01-20T00:14:28.528Z,-2.60
2019-01-20T00:16:59.254Z,-2.60
2019-01-20T00:19:29.050Z,-2.60
2019-01-20T00:21:58.914Z,-2.70
2019-01-20T00:24:28.533Z,-2.70
2019-01-20T00:26:58.029Z,-2.80
2019-01-20T00:29:27.673Z,-2.80
2019-01-20T00:31:57.438Z,-2.80
2019-01-20T00:34:27.001Z,-2.90
2019-01-20T00:36:56.803Z,-2.90
2019-01-20T00:39:26.375Z,-2.90
2019-01-20T00:41:56.018Z,-2.90
2019-01-20T00:44:25.620Z,-3.00
2019-01-20T00:46:55.189Z,-3.00
2019-01-20T00:49:24.771Z,-3.00
2019-01-20T00:51:54.376Z,-3.00
2019-01-20T00:54:23.977Z,-3.00
2019-01-20T00:56:53.600Z,-3.10
2019-01-20T00:59:23.579Z,-3.10
2019-01-20T01:01:53.254Z,-3.10
2019-01-20T01:04:22.905Z,-3.20
2019-01-20T01:06:52.584Z,-3.20
2019-01-20T01:09:22.418Z,-3.20
2019-01-20T01:11:53.660Z,-3.20
2019-01-20T01:14:23.360Z,-3.30
2019-01-20T01:16:53.041Z,-3.30
2019-01-20T01:19:23.389Z,-3.30
2019-01-20T01:21:53.315Z,-3.30
2019-01-20T01:24:23.058Z,-3.30
2019-01-20T01:26:52.721Z,-3.40
2019-01-20T01:29:22.580Z,-3.40
2019-01-20T01:31:52.317Z,-3.40
2019-01-20T01:34:23.456Z,-3.40
2019-01-20T01:37:13.387Z,-3.40
2019-01-20T01:39:43.108Z,-3.40
2019-01-20T01:42:13.100Z,-3.40
2019-01-20T01:44:43.029Z,-3.40
2019-01-20T01:47:13.212Z,-3.50
2019-01-20T01:49:42.838Z,-3.50
2019-01-20T01:52:12.547Z,-3.50
2019-01-20T01:54:42.134Z,-3.60
2019-01-20T01:57:11.672Z,-3.50
2019-01-20T01:59:41.574Z,-3.60
2019-01-20T02:02:11.228Z,-3.60
2019-01-20T02:04:41.209Z,-3.60
2019-01-20T02:07:11.122Z,-3.60
2019-01-20T02:09:42.755Z,-3.70
2019-01-20T02:12:13.932Z,-3.70
2019-01-20T02:14:45.060Z,-3.70
2019-01-20T02:17:15.056Z,-3.70
2019-01-20T02:19:44.581Z,-3.80
2019-01-20T02:22:14.401Z,-3.80
2019-01-20T02:24:44.024Z,-3.80
2019-01-20T02:27:13.703Z,-3.80
2019-01-20T02:29:45.036Z,-3.80
2019-01-20T02:32:14.778Z,-3.80
2019-01-20T02:34:44.442Z,-3.80
2019-01-20T02:37:14.083Z,-3.80
2019-01-20T02:39:43.582Z,-3.80
2019-01-20T02:42:13.284Z,-3.80
2019-01-20T02:44:42.699Z,-3.90
2019-01-20T02:47:12.248Z,-3.90
2019-01-20T02:49:41.728Z,-3.90
2019-01-20T02:52:11.350Z,-3.90
2019-01-20T02:54:40.800Z,-3.90
2019-01-20T02:57:10.336Z,-3.90
2019-01-20T02:59:38.663Z,-4.00
2019-01-20T03:02:07.077Z,-4.00
2019-01-20T03:04:35.412Z,-4.00
2019-01-20T03:07:03.964Z,-4.00
2019-01-20T03:09:32.333Z,-4.10
2019-01-20T03:12:03.553Z,-4.00
2019-01-20T03:14:30.789Z,-4.10
2019-01-20T03:16:59.187Z,-4.10
2019-01-20T03:19:27.644Z,-4.10
2019-01-20T03:21:56.079Z,-4.10
2019-01-20T03:24:24.423Z,-4.20
2019-01-20T03:26:52.720Z,-4.20
2019-01-20T03:29:21.160Z,-4.20
2019-01-20T03:31:49.490Z,-4.20
2019-01-20T03:34:17.865Z,-4.30
2019-01-20T03:36:46.207Z,-4.30
2019-01-20T03:39:14.627Z,-4.30
2019-01-20T03:41:43.056Z,-4.40
2019-01-20T03:44:11.541Z,-4.40
2019-01-20T03:46:39.993Z,-4.40
2019-01-20T03:49:08.375Z,-4.40
2019-01-20T03:51:36.783Z,-4.40
2019-01-20T03:54:05.336Z,-4.40
2019-01-20T03:56:33.818Z,-4.50
2019-01-20T03:59:02.167Z,-4.50
2019-01-20T04:01:30.600Z,-4.50
2019-01-20T04:03:59.007Z,-4.50
2019-01-20T04:06:27.373Z,-4.50
2019-01-20T04:08:55.756Z,-4.60
2019-01-20T04:11:24.129Z,-4.60
2019-01-20T04:13:52.547Z,-4.60
2019-01-20T04:16:20.960Z,-4.60
2019-01-20T04:18:49.392Z,-4.60
2019-01-20T04:21:17.834Z,-4.60
2019-01-20T04:23:46.170Z,-4.60
2019-01-20T04:26:14.607Z,-4.70
2019-01-20T04:28:43.001Z,-4.70
2019-01-20T04:31:11.346Z,-4.70
2019-01-20T04:33:39.653Z,-4.70
2019-01-20T04:36:08.065Z,-4.70
2019-01-20T04:38:36.508Z,-4.70
2019-01-20T04:41:04.910Z,-4.70
2019-01-20T04:43:33.318Z,-4.70
2019-01-20T04:46:01.758Z,-4.80
2019-01-20T04:48:30.200Z,-4.80
2019-01-20T04:50:58.620Z,-4.80
2019-01-20T04:53:27.819Z,-4.80
2019-01-20T04:55:56.255Z,-4.80
2019-01-20T04:58:24.597Z,-4.80
2019-01-20T05:00:53.041Z,-4.80
2019-01-20T05:03:21.489Z,-4.90
2019-01-20T05:05:49.856Z,-4.90
2019-01-20T05:08:18.209Z,-4.90
2019-01-20T05:10:46.578Z,-5.00
2019-01-20T05:13:14.925Z,-5.00
2019-01-20T05:15:43.291Z,-5.00
2019-01-20T05:18:11.670Z,-5.00
2019-01-20T05:20:39.973Z,-5.00
2019-01-20T05:23:08.322Z,-5.00
2019-01-20T05:25:36.753Z,-5.00
2019-01-20T05:28:05.191Z,-5.00
2019-01-20T05:30:33.482Z,-5.00
2019-01-20T05:33:01.927Z,-5.00
2019-01-20T05:35:30.284Z,-5.00
2019-01-20T05:37:58.702Z,-5.10
2019-01-20T05:40:27.075Z,-5.10
2019-01-20T05:42:55.527Z,-5.10
2019-01-20T05:45:24.729Z,-5.10
2019-01-20T05:47:53.222Z,-5.10
2019-01-20T05:50:21.569Z,-5.20
2019-01-20T05:52:50.103Z,-5.20
2019-01-20T05:55:18.606Z,-5.20
2019-01-20T05:57:46.964Z,-5.20
2019-01-20T06:00:16.925Z,-5.20
2019-01-20T06:02:45.484Z,-5.20
2019-01-20T06:05:13.858Z,-5.20
2019-01-20T06:07:42.314Z,-5.20
2019-01-20T06:10:10.989Z,-5.20
2019-01-20T06:12:39.428Z,-5.20
2019-01-20T06:15:09.385Z,-5.30
2019-01-20T06:17:37.818Z,-5.20
2019-01-20T06:20:06.788Z,-5.30
2019-01-20T06:22:35.116Z,-5.30
2019-01-20T06:25:03.585Z,-5.30
2019-01-20T06:27:31.894Z,-5.20
2019-01-20T06:30:00.273Z,-5.20
2019-01-20T06:32:28.681Z,-5.20
2019-01-20T06:34:57.121Z,-5.20
2019-01-20T06:37:25.520Z,-5.20
2019-01-20T06:39:54.123Z,-5.30
2019-01-20T06:42:22.571Z,-5.30
2019-01-20T06:44:50.966Z,-5.30
2019-01-20T06:47:19.345Z,-5.30
2019-01-20T06:49:47.760Z,-5.30
2019-01-20T06:52:16.064Z,-5.40
2019-01-20T06:54:44.560Z,-5.30
2019-01-20T06:57:13.075Z,-5.40
2019-01-20T06:59:41.483Z,-5.40
2019-01-20T07:02:09.879Z,-5.40
2019-01-20T07:04:38.280Z,-5.40
2019-01-20T07:07:06.591Z,-5.40
2019-01-20T07:09:34.954Z,-5.50
2019-01-20T07:12:03.278Z,-5.50
2019-01-20T07:14:31.653Z,-5.50
2019-01-20T07:17:00.014Z,-5.50
2019-01-20T07:19:28.347Z,-5.50
2019-01-20T07:21:56.691Z,-5.50
2019-01-20T07:24:25.130Z,-5.50
2019-01-20T07:26:53.520Z,-5.50
2019-01-20T07:29:21.929Z,-5.50
2019-01-20T07:31:50.290Z,-5.50
2019-01-20T07:34:18.699Z,-5.50
2019-01-20T07:36:46.997Z,-5.50
2019-01-20T07:39:15.365Z,-5.50
2019-01-20T07:41:43.721Z,-5.60
2019-01-20T07:44:12.041Z,-5.60
2019-01-20T07:46:40.461Z,-5.60
2019-01-20T07:49:08.857Z,-5.60
2019-01-20T07:51:37.166Z,-5.60
2019-01-20T07:54:05.509Z,-5.60
2019-01-20T07:56:33.800Z,-5.60
2019-01-20T07:59:02.250Z,-5.60
2019-01-20T08:01:30.715Z,-5.60
2019-01-20T08:03:59.271Z,-5.60
2019-01-20T08:06:27.681Z,-5.60
2019-01-20T08:08:56.232Z,-5.50
2019-01-20T08:11:24.718Z,-5.50
2019-01-20T08:13:53.129Z,-5.50
2019-01-20T08:16:21.510Z,-5.50
2019-01-20T08:18:50.021Z,-5.50
2019-01-20T08:21:18.461Z,-5.50
2019-01-20T08:23:46.825Z,-5.50
2019-01-20T08:26:15.158Z,-5.40
2019-01-20T08:28:43.677Z,-5.40
2019-01-20T08:31:12.249Z,-5.40
2019-01-20T08:33:40.759Z,-5.40
2019-01-20T08:36:09.279Z,-5.40
2019-01-20T08:38:38.097Z,-5.40
2019-01-20T08:41:06.673Z,-5.30
2019-01-20T08:43:38.545Z,-5.30
2019-01-20T08:46:15.484Z,-5.30
2019-01-20T08:48:44.126Z,-5.20
2019-01-20T08:51:13.287Z,-5.10
2019-01-20T08:53:41.697Z,-5.10
2019-01-20T08:56:10.175Z,-5.00
2019-01-20T08:58:38.706Z,-5.00
2019-01-20T09:01:07.173Z,-4.90
2019-01-20T09:03:35.706Z,-4.90
2019-01-20T09:06:04.395Z,-4.80
2019-01-20T09:08:32.949Z,-4.80
2019-01-20T09:11:01.471Z,-4.70
2019-01-20T09:13:30.346Z,-4.70
2019-01-20T09:15:58.823Z,-4.60
2019-01-20T09:18:28.794Z,-4.50
2019-01-20T09:20:57.361Z,-4.40
2019-01-20T09:23:25.897Z,-4.30
2019-01-20T09:25:54.314Z,-4.30
2019-01-20T09:28:22.756Z,-4.20
2019-01-20T09:30:51.264Z,-4.00
2019-01-20T09:33:24.483Z,-3.90
2019-01-20T09:35:49.864Z,-3.70
2019-01-20T09:38:18.293Z,-3.60
2019-01-20T09:40:46.646Z,-3.50
2019-01-20T09:43:15.128Z,-3.40
2019-01-20T09:45:43.912Z,-3.30
2019-01-20T09:48:12.670Z,-3.20
2019-01-20T09:50:41.132Z,-3.10
2019-01-20T09:53:09.629Z,-3.00
2019-01-20T09:55:40.023Z,-2.90
2019-01-20T09:58:08.428Z,-2.90
2019-01-20T10:00:36.963Z,-2.70
2019-01-20T10:03:05.546Z,-2.70
2019-01-20T10:05:33.958Z,-2.50
2019-01-20T10:08:02.275Z,-2.40
2019-01-20T10:10:30.640Z,-2.30
2019-01-20T10:12:59.001Z,-2.30
2019-01-20T10:15:27.422Z,-2.20
2019-01-20T10:17:55.816Z,-2.10
2019-01-20T10:20:25.593Z,-1.90
2019-01-20T10:22:53.925Z,-1.90
2019-01-20T10:25:44.689Z,-1.80
2019-01-20T10:28:14.368Z,-1.70
2019-01-20T10:30:42.692Z,-1.60
2019-01-20T10:33:11.136Z,-1.50
2019-01-20T10:35:50.442Z,-1.40
2019-01-20T10:38:18.787Z,-1.30
2019-01-20T10:40:47.274Z,-1.30
2019-01-20T10:43:15.785Z,-1.20
2019-01-20T10:45:44.156Z,-1.10
2019-01-20T10:48:12.628Z,-1.00
2019-01-20T10:50:41.133Z,-0.90
2019-01-20T10:53:09.546Z,-0.90
2019-01-20T10:55:37.955Z,-0.80
2019-01-20T10:58:06.382Z,-0.70
2019-01-20T11:00:36.524Z,-0.60
2019-01-20T11:03:05.171Z,-0.50
2019-01-20T11:05:41.227Z,-0.40
2019-01-20T11:08:09.691Z,-0.40
2019-01-20T11:10:42.855Z,-0.30
2019-01-20T11:13:11.698Z,-0.20
2019-01-20T11:15:43.466Z,-0.20
2019-01-20T11:18:11.935Z,-0.10
2019-01-20T11:20:59.545Z,0.00
2019-01-20T11:23:31.519Z,0.10
2019-01-20T11:26:00.260Z,0.20
2019-01-20T11:28:28.898Z,0.20
2019-01-20T11:30:57.270Z,0.30
2019-01-20T11:33:25.938Z,0.40
2019-01-20T11:35:54.504Z,0.50
2019-01-20T11:38:26.451Z,0.60
2019-01-20T11:40:57.255Z,0.70
2019-01-20T11:44:17.015Z,0.70
2019-01-20T11:46:01.333Z,0.80
2019-01-20T11:48:35.333Z,0.90
2019-01-20T11:51:04.982Z,0.90
2019-01-20T11:53:37.762Z,1.00
2019-01-20T11:56:07.033Z,1.10
2019-01-20T11:58:44.932Z,1.20
2019-01-20T12:01:13.846Z,1.30
2019-01-20T12:03:42.441Z,1.40
2019-01-20T12:06:12.168Z,1.50
2019-01-20T12:08:41.148Z,1.50
2019-01-20T12:11:09.602Z,1.60
2019-01-20T12:13:38.192Z,1.70
2019-01-20T12:16:07.225Z,1.70
2019-01-20T12:18:37.649Z,1.80
2019-01-20T12:21:06.182Z,1.90
2019-01-20T12:23:34.683Z,2.00
2019-01-20T12:26:02.991Z,2.10
2019-01-20T12:28:31.410Z,2.10
2019-01-20T12:30:59.798Z,2.20
2019-01-20T12:33:28.182Z,2.20
2019-01-20T12:35:56.509Z,2.20
2019-01-20T12:38:25.052Z,2.20
2019-01-20T12:40:53.478Z,2.30
2019-01-20T12:43:21.961Z,2.30
2019-01-20T12:45:50.596Z,2.30
2019-01-20T12:48:19.010Z,2.40
2019-01-20T12:50:47.372Z,2.40
2019-01-20T12:53:15.740Z,2.50
2019-01-20T12:55:44.067Z,2.50
2019-01-20T12:58:12.522Z,2.50
2019-01-20T13:00:40.863Z,2.50
2019-01-20T13:03:10.253Z,2.50
2019-01-20T13:05:38.838Z,2.50
2019-01-20T13:08:08.058Z,2.50
2019-01-20T13:10:36.389Z,2.50
2019-01-20T13:13:05.160Z,2.60
2019-01-20T13:15:33.586Z,2.60
2019-01-20T13:18:02.203Z,2.60
2019-01-20T13:20:30.701Z,2.60
2019-01-20T13:22:59.102Z,2.70
2019-01-20T13:25:28.472Z,2.70
2019-01-20T13:27:57.182Z,2.70
2019-01-20T13:30:26.719Z,2.70
2019-01-20T13:32:55.029Z,2.80
2019-01-20T13:35:23.696Z,2.80
2019-01-20T13:38:11.060Z,2.80
2019-01-20T13:41:08.009Z,2.80
2019-01-20T13:43:36.605Z,2.80
2019-01-20T13:46:05.485Z,2.80
2019-01-20T13:48:33.887Z,2.80
2019-01-20T13:51:02.559Z,2.80
2019-01-20T13:53:31.282Z,2.80
2019-01-20T13:56:01.269Z,2.80
2019-01-20T13:58:29.927Z,2.80
2019-01-20T14:00:59.003Z,2.80
2019-01-20T14:03:28.259Z,2.80
2019-01-20T14:05:57.313Z,2.80
2019-01-20T14:08:26.438Z,2.70
2019-01-20T14:10:55.299Z,2.70
2019-01-20T14:13:24.633Z,2.70
2019-01-20T14:15:54.197Z,2.70
2019-01-20T14:18:24.241Z,2.60
2019-01-20T14:20:53.310Z,2.60
2019-01-20T14:23:25.052Z,2.60
2019-01-20T14:25:55.149Z,2.50
2019-01-20T14:28:24.492Z,2.50
2019-01-20T14:30:53.901Z,2.50
2019-01-20T14:33:22.818Z,2.50
2019-01-20T14:35:51.845Z,2.40
2019-01-20T14:38:21.179Z,2.40
2019-01-20T14:40:49.733Z,2.30
2019-01-20T14:43:18.394Z,2.30
2019-01-20T14:45:47.123Z,2.30
2019-01-20T14:48:19.342Z,2.30
2019-01-20T14:50:51.785Z,2.20
2019-01-20T14:53:20.309Z,2.10
2019-01-20T14:55:48.779Z,2.10
2019-01-20T14:58:17.323Z,2.00
2019-01-20T15:00:45.791Z,1.90
2019-01-20T15:03:14.330Z,1.80
2019-01-20T15:05:42.819Z,1.70
2019-01-20T15:08:11.372Z,1.60
2019-01-20T15:10:39.853Z,1.50
2019-01-20T15:13:08.251Z,1.40
2019-01-20T15:15:37.709Z,1.40
2019-01-20T15:18:06.427Z,1.30
2019-01-20T15:20:34.797Z,1.30
2019-01-20T15:23:03.307Z,1.30
2019-01-20T15:25:31.848Z,1.20
2019-01-20T15:28:00.438Z,1.10
2019-01-20T15:30:29.948Z,1.10
2019-01-20T15:32:59.328Z,1.10
2019-01-20T15:35:28.043Z,1.10
2019-01-20T15:37:57.454Z,1.00
2019-01-20T15:40:26.703Z,1.00
2019-01-20T15:42:55.731Z,0.90
2019-01-20T15:45:24.827Z,0.90
2019-01-20T15:47:53.411Z,0.80
2019-01-20T15:50:22.909Z,0.80
2019-01-20T15:52:51.584Z,0.80
2019-01-20T15:55:20.092Z,0.80
2019-01-20T15:57:48.497Z,0.80
2019-01-20T16:00:18.147Z,0.70
2019-01-20T16:02:46.758Z,0.70
2019-01-20T16:05:15.327Z,0.60
2019-01-20T16:07:43.855Z,0.60
2019-01-20T16:10:13.343Z,0.60
2019-01-20T16:12:41.990Z,0.60
2019-01-20T16:15:14.911Z,0.60
2019-01-20T16:17:43.660Z,0.60
2019-01-20T16:20:12.495Z,0.60
2019-01-20T16:22:43.212Z,0.60
2019-01-20T16:25:14.020Z,0.50
2019-01-20T16:27:42.879Z,0.50
2019-01-20T16:30:13.328Z,0.40
2019-01-20T16:32:43.939Z,0.40
2019-01-20T16:35:13.397Z,0.30
2019-01-20T16:37:42.126Z,0.30
2019-01-20T16:40:17.747Z,0.20
2019-01-20T16:42:46.530Z,0.20
2019-01-20T16:45:16.688Z,0.20
2019-01-20T16:47:48.959Z,0.10
2019-01-20T16:50:25.545Z,0.10
2019-01-20T16:52:55.876Z,0.10
2019-01-20T16:55:27.075Z,0.00
2019-01-20T16:57:55.669Z,0.00
2019-01-20T17:00:25.666Z,-0.10
2019-01-20T17:02:54.883Z,-0.10
2019-01-20T17:05:26.762Z,-0.10
2019-01-20T17:07:54.864Z,-0.10
2019-01-20T17:10:25.027Z,-0.20
2019-01-20T17:12:53.821Z,-0.20
2019-01-20T17:15:26.469Z,-0.20
2019-01-20T17:17:55.277Z,-0.30
2019-01-20T17:20:23.715Z,-0.30
2019-01-20T17:22:52.398Z,-0.30
2019-01-20T17:25:21.171Z,-0.30
2019-01-20T17:27:49.782Z,-0.40
2019-01-20T17:30:19.241Z,-0.40
2019-01-20T17:32:47.753Z,-0.40
2019-01-20T17:35:16.668Z,-0.50
2019-01-20T17:37:47.730Z,-0.50
2019-01-20T17:40:18.921Z,-0.60
2019-01-20T17:42:48.812Z,-0.60
2019-01-20T17:45:19.313Z,-0.60
2019-01-20T17:47:49.425Z,-0.60
2019-01-20T17:50:22.108Z,-0.70
2019-01-20T17:52:51.635Z,-0.70
2019-01-20T17:55:22.247Z,-0.80
2019-01-20T17:57:50.987Z,-0.80
2019-01-20T18:00:20.803Z,-0.80
2019-01-20T18:02:49.227Z,-0.90
2019-01-20T18:05:20.836Z,-0.90
2019-01-20T18:07:51.144Z,-0.90
2019-01-20T18:10:19.685Z,-0.90
2019-01-20T18:12:48.638Z,-0.90
2019-01-20T18:15:17.827Z,-0.90
2019-01-20T18:17:47.673Z,-0.90
2019-01-20T18:20:17.898Z,-0.90
2019-01-20T18:22:46.368Z,-1.00
2019-01-20T18:25:15.176Z,-1.00
2019-01-20T18:27:43.660Z,-0.90
2019-01-20T18:30:14.381Z,-0.90
2019-01-20T18:32:43.312Z,-0.90
2019-01-20T18:35:12.050Z,-1.00
2019-01-20T18:37:40.813Z,-1.00
2019-01-20T18:40:11.215Z,-1.00
2019-01-20T18:42:40.135Z,-1.00
2019-01-20T18:45:09.747Z,-1.10
2019-01-20T18:47:38.524Z,-1.10
2019-01-20T18:50:08.244Z,-1.10
2019-01-20T18:52:36.681Z,-1.10
2019-01-20T18:55:05.718Z,-1.10
2019-01-20T18:57:34.169Z,-1.20
2019-01-20T19:00:02.783Z,-1.20
2019-01-20T19:02:31.264Z,-1.30
2019-01-20T19:04:59.603Z,-1.30
2019-01-20T19:07:28.066Z,-1.30
2019-01-20T19:09:56.575Z,-1.30
2019-01-20T19:12:24.996Z,-1.30
2019-01-20T19:14:53.413Z,-1.40
2019-01-20T19:17:21.915Z,-1.40
2019-01-20T19:19:50.354Z,-1.40
2019-01-20T19:22:18.776Z,-1.40
2019-01-20T19:24:47.716Z,-1.40
2019-01-20T19:27:16.206Z,-1.50
2019-01-20T19:29:44.657Z,-1.50
2019-01-20T19:32:13.086Z,-1.50
2019-01-20T19:34:41.515Z,-1.50
2019-01-20T19:37:09.945Z,-1.60
2019-01-20T19:39:38.436Z,-1.60
2019-01-20T19:42:07.202Z,-1.60
2019-01-20T19:44:35.639Z,-1.70
2019-01-20T19:47:04.020Z,-1.70
2019-01-20T19:49:32.639Z,-1.70
2019-01-20T19:52:01.116Z,-1.80
2019-01-20T19:54:29.504Z,-1.80
2019-01-20T19:56:57.963Z,-1.80
2019-01-20T19:59:26.383Z,-1.80
2019-01-20T20:01:54.880Z,-1.90
2019-01-20T20:04:23.385Z,-1.90
2019-01-20T20:06:51.791Z,-2.00
2019-01-20T20:09:20.350Z,-1.90
2019-01-20T20:11:48.802Z,-2.00
2019-01-20T20:14:17.256Z,-2.00
2019-01-20T20:16:45.875Z,-2.00
2019-01-20T20:19:14.379Z,-2.10
2019-01-20T20:21:43.965Z,-2.10
2019-01-20T20:24:12.568Z,-2.10
2019-01-20T20:26:41.274Z,-2.20
2019-01-20T20:29:09.779Z,-2.20
2019-01-20T20:31:38.206Z,-2.20
2019-01-20T20:34:06.610Z,-2.30
2019-01-20T20:36:34.966Z,-2.30
2019-01-20T20:39:03.566Z,-2.30
2019-01-20T20:41:32.015Z,-2.40
2019-01-20T20:44:00.509Z,-2.40
2019-01-20T20:46:30.695Z,-2.40
2019-01-20T20:48:59.373Z,-2.40
2019-01-20T20:51:27.817Z,-2.50
2019-01-20T20:53:56.191Z,-2.50
2019-01-20T20:56:24.596Z,-2.50
2019-01-20T20:58:53.037Z,-2.60
2019-01-20T21:01:21.499Z,-2.60
2019-01-20T21:03:49.835Z,-2.60
2019-01-20T21:06:18.323Z,-2.70
2019-01-20T21:08:48.512Z,-2.70
2019-01-20T21:11:16.799Z,-2.70
2019-01-20T21:13:45.477Z,-2.70
2019-01-20T21:16:14.014Z,-2.80
2019-01-20T21:18:42.570Z,-2.80
2019-01-20T21:21:10.966Z,-2.80
2019-01-20T21:23:39.466Z,-2.90
2019-01-20T21:26:07.757Z,-2.90
2019-01-20T21:28:36.285Z,-2.90
2019-01-20T21:31:04.871Z,-3.00
2019-01-20T21:33:33.272Z,-3.00
2019-01-20T21:36:01.705Z,-3.00
2019-01-20T21:38:30.310Z,-3.00
2019-01-20T21:40:58.790Z,-3.10
2019-01-20T21:43:36.342Z,-3.10
2019-01-20T21:46:04.754Z,-3.10
2019-01-20T21:48:33.425Z,-3.20
2019-01-20T21:51:02.045Z,-3.20
2019-01-20T21:53:30.694Z,-3.20
2019-01-20T21:55:59.235Z,-3.20
2019-01-20T21:58:27.718Z,-3.30
2019-01-20T22:00:56.027Z,-3.30
2019-01-20T22:03:24.378Z,-3.30
2019-01-20T22:05:52.818Z,-3.30
2019-01-20T22:08:21.239Z,-3.30
2019-01-20T22:10:49.686Z,-3.40
2019-01-20T22:13:19.035Z,-3.40
2019-01-20T22:15:47.434Z,-3.40
2019-01-20T22:18:15.797Z,-3.40
2019-01-20T22:20:44.171Z,-3.40
2019-01-20T22:23:12.485Z,-3.40
2019-01-20T22:25:40.930Z,-3.40
2019-01-20T22:28:09.364Z,-3.50
2019-01-20T22:30:37.817Z,-3.50
2019-01-20T22:33:06.149Z,-3.50
2019-01-20T22:35:34.606Z,-3.50
2019-01-20T22:38:03.178Z,-3.50
2019-01-20T22:40:31.558Z,-3.60
2019-01-20T22:42:59.885Z,-3.60
2019-01-20T22:45:28.228Z,-3.60
2019-01-20T22:47:56.681Z,-3.60
2019-01-20T22:50:25.202Z,-3.70
2019-01-20T22:52:53.801Z,-3.70
2019-01-20T22:55:22.216Z,-3.70
2019-01-20T22:57:50.590Z,-3.70
2019-01-20T23:00:28.436Z,-3.70
2019-01-20T23:02:56.852Z,-3.70
2019-01-20T23:05:25.224Z,-3.80
2019-01-20T23:07:53.604Z,-3.80
2019-01-20T23:10:22.053Z,-3.80
2019-01-20T23:12:50.520Z,-3.90
2019-01-20T23:15:19.021Z,-3.90
2019-01-20T23:17:47.465Z,-3.90
2019-01-20T23:20:16.296Z,-3.90
2019-01-20T23:22:44.701Z,-3.90
2019-01-20T23:25:13.056Z,-3.90
2019-01-20T23:28:00.466Z,-4.00
2019-01-20T23:30:28.875Z,-4.00
2019-01-20T23:32:57.325Z,-4.00
2019-01-20T23:35:25.763Z,-4.00
2019-01-20T23:37:54.221Z,-4.00
2019-01-20T23:40:22.942Z,-4.00
2019-01-20T23:42:51.333Z,-4.10
2019-01-20T23:45:19.680Z,-4.10
2019-01-20T23:47:48.305Z,-4.10
2019-01-20T23:50:16.730Z,-4.10
2019-01-20T23:52:45.305Z,-4.20
2019-01-20T23:55:14.094Z,-4.20
2019-01-20T23:57:43.347Z,-4.20
